Time;durP1;ratioP1;P1;durP2;ratioP2;P2;SDS_P1;SDS_P2;PMS_P1;PMS_P2;Temp;Humidity;BMP_temperature;BMP_pressure;BME280_temperature;BME280_humidity;BME280_pressure;Samples;Min_cycle;Max_cycle;Signal;HPM_P1;HPM_P2
2023/01/24 00:00:34;;;;;;;;;;;;;;;21.87;35.81;103613.25;7264764;19;153195;-74
2023/01/24 00:03:01;;;;;;;;;;;;;;;21.84;35.91;103599.69;7268024;19;155252;-75
2023/01/24 00:05:28;;;;;;;;;;;;;;;21.86;35.81;103607.84;7262036;19;153841;-74
2023/01/24 00:07:54;;;;;;;;;;;;;;;21.82;35.78;103601.03;7262794;19;154814;-74
2023/01/24 00:10:22;;;;;;;;;;;;;;;21.82;35.84;103610.31;7261753;19;154060;-75
2023/01/24 00:12:49;;;;;;;;;;;;;;;21.81;36.07;103607.75;7262732;19;153459;-75
2023/01/24 00:15:16;;;;;;;;;;;;;;;21.77;35.92;103600.94;7229628;19;156178;-74
2023/01/24 00:17:42;;;;;;;;;;;;;;;21.75;36.00;103609.66;7262472;19;154110;-74
2023/01/24 00:20:10;;;;;;;;;;;;;;;21.74;36.46;103600.34;7264075;19;153513;-74
2023/01/24 00:22:36;;;;;;;;;;;;;;;21.68;36.12;103594.84;7256910;19;155291;-75
2023/01/24 00:25:03;;;;;;;;;;;;;;;21.65;36.39;103596.22;7263909;19;153398;-74
2023/01/24 00:27:31;;;;;;;;;;;;;;;21.65;36.09;103592.56;7259971;19;153180;-76
2023/01/24 00:29:58;;;;;;;;;;;;;;;21.60;36.20;103592.44;7259615;19;152932;-74
2023/01/24 00:32:25;;;;;;;;;;;;;;;21.54;36.36;103588.69;7260418;19;155733;-74
2023/01/24 00:34:52;;;;;;;;;;;;;;;21.52;36.71;103585.28;7256627;19;153421;-76
2023/01/24 00:37:18;;;;;;;;;;;;;;;21.49;36.82;103590.53;7260923;19;153602;-75
2023/01/24 00:39:45;;;;;;;;;;;;;;;21.46;36.98;103589.09;7233312;19;154771;-75
2023/01/24 00:42:12;;;;;;;;;;;;;;;21.45;36.63;103592.13;7252542;19;153140;-74
2023/01/24 00:44:40;;;;;;;;;;;;;;;21.44;36.72;103598.88;7257316;19;153110;-75
2023/01/24 00:47:24;;;;;;;;;;;;;;;21.42;36.98;103595.47;7261678;19;154941;-74
2023/01/24 00:49:50;;;;;;;;;;;;;;;21.45;36.82;103593.00;7258137;19;153535;-76
2023/01/24 00:52:17;;;;;;;;;;;;;;;21.44;36.77;103598.88;7257041;19;153271;-74
2023/01/24 00:54:51;;;;;;;;;;;;;;;21.43;37.12;103592.41;7254730;19;153899;-74
2023/01/24 00:57:17;;;;;;;;;;;;;;;21.41;37.00;103594.59;7256723;19;153798;-74
2023/01/24 00:59:44;;;;;;;;;;;;;;;21.40;36.95;103601.31;7258459;19;155734;-74
2023/01/24 01:02:11;;;;;;;;;;;;;;;21.36;36.87;103596.44;7257658;19;153736;-74
2023/01/24 01:04:45;;;;;;;;;;;;;;;21.35;37.48;103594.75;7260044;19;154181;-75
2023/01/24 01:07:11;;;;;;;;;;;;;;;21.33;37.47;103594.16;7260813;19;153849;-74
2023/01/24 01:09:38;;;;;;;;;;;;;;;21.30;37.45;103592.69;7264113;19;153333;-74
2023/01/24 01:12:05;;;;;;;;;;;;;;;21.29;37.53;103594.66;7225922;19;155575;-74
2023/01/24 01:14:32;;;;;;;;;;;;;;;21.27;37.50;103588.41;7255332;19;154412;-75
2023/01/24 01:16:59;;;;;;;;;;;;;;;21.24;37.30;103588.06;7260700;19;153668;-75
2023/01/24 01:19:25;;;;;;;;;;;;;;;21.22;37.30;103598.69;7260419;19;153269;-74
2023/01/24 01:21:52;;;;;;;;;;;;;;;21.17;37.36;103585.38;7260499;19;156362;-75
2023/01/24 01:24:19;;;;;;;;;;;;;;;21.15;37.34;103583.94;7252791;19;154659;-75
2023/01/24 01:26:46;;;;;;;;;;;;;;;21.11;37.63;103579.88;7258048;19;154157;-76
2023/01/24 01:29:13;;;;;;;;;;;;;;;21.08;37.57;103574.72;7262490;19;154091;-75
2023/01/24 01:31:40;;;;;;;;;;;;;;;21.06;37.78;103577.81;7259515;19;153762;-75
2023/01/24 01:34:07;;;;;;;;;;;;;;;21.02;37.54;103578.56;7255076;19;154313;-75
2023/01/24 01:36:34;;;;;;;;;;;;;;;21.00;37.52;103590.03;7261925;19;154044;-75
2023/01/24 01:39:01;;;;;;;;;;;;;;;20.97;37.36;103578.44;7262392;19;154115;-76
2023/01/24 01:41:28;;;;;;;;;;;;;;;20.96;37.84;103579.53;7261817;19;153984;-76
2023/01/24 01:46:44;;;;;;;;;;;;;;;20.86;37.71;103578.22;7261679;19;155047;-75
2023/01/24 01:49:17;;;;;;;;;;;;;;;20.84;37.75;103577.63;7259096;19;155803;-76
2023/01/24 01:51:47;;;;;;;;;;;;;;;20.79;37.63;103571.88;7265955;19;153696;-75
2023/01/24 01:54:19;;;;;;;;;;;;;;;20.76;37.93;103579.91;7259328;19;155175;-74
2023/01/24 01:56:50;;;;;;;;;;;;;;;20.75;37.62;103579.09;7259373;19;153209;-75
2023/01/24 01:59:28;;;;;;;;;;;;;;;20.72;37.62;103584.31;7261170;19;153636;-76
2023/01/24 02:01:57;;;;;;;;;;;;;;;20.67;38.04;103584.25;7254963;19;154566;-76
2023/01/24 02:04:44;;;;;;;;;;;;;;;20.63;38.15;103585.78;7259604;19;153900;-74
2023/01/24 02:07:12;;;;;;;;;;;;;;;20.58;37.80;103582.91;7257624;19;154004;-74
2023/01/24 02:09:41;;;;;;;;;;;;;;;20.54;37.92;103584.47;7257701;19;154647;-74
2023/01/24 02:12:11;;;;;;;;;;;;;;;20.51;38.30;103588.63;7259492;19;154733;-75
2023/01/24 02:17:24;;;;;;;;;;;;;;;20.47;38.34;103593.03;7260076;19;154743;-74
2023/01/24 02:19:59;;;;;;;;;;;;;;;20.44;38.44;103589.84;7261762;19;154103;-76
2023/01/24 02:22:30;;;;;;;;;;;;;;;20.41;38.57;103599.59;7258797;19;154222;-77
2023/01/24 02:25:04;;;;;;;;;;;;;;;20.38;38.25;103594.47;7257648;19;153496;-76
2023/01/24 02:27:31;;;;;;;;;;;;;;;20.34;38.39;103598.88;7259579;19;153444;-77
2023/01/24 02:29:58;;;;;;;;;;;;;;;20.31;38.85;103593.72;7257587;19;153369;-74
2023/01/24 02:32:25;;;;;;;;;;;;;;;20.32;38.66;103595.44;7257742;19;154626;-75
2023/01/24 02:34:52;;;;;;;;;;;;;;;20.25;38.76;103598.34;7253689;19;153522;-75
2023/01/24 02:37:19;;;;;;;;;;;;;;;20.22;38.78;103593.19;7265467;19;153318;-76
2023/01/24 02:39:45;;;;;;;;;;;;;;;20.21;39.04;103596.25;7255855;19;153081;-76
2023/01/24 02:42:14;;;;;;;;;;;;;;;20.19;39.04;103599.31;7255646;19;154499;-76
2023/01/24 02:45:01;;;;;;;;;;;;;;;20.17;38.88;103607.09;7255947;19;154847;-76
2023/01/24 02:47:32;;;;;;;;;;;;;;;20.11;39.32;103596.84;7253347;19;153806;-75
2023/01/24 02:50:00;;;;;;;;;;;;;;;20.09;38.97;103601.84;7258620;19;158693;-75
2023/01/24 02:55:12;;;;;;;;;;;;;;;20.02;39.15;103603.06;7260672;19;155221;-75
2023/01/24 03:00:25;;;;;;;;;;;;;;;19.95;39.57;103598.38;7275001;19;152912;-76
2023/01/24 03:02:52;;;;;;;;;;;;;;;19.97;39.30;103606.59;7265827;19;154335;-76
2023/01/24 03:05:19;;;;;;;;;;;;;;;19.92;39.25;103604.50;7264137;19;152986;-79
2023/01/24 03:07:46;;;;;;;;;;;;;;;19.90;39.14;103598.25;7263719;19;154084;-76
2023/01/24 03:10:16;;;;;;;;;;;;;;;19.89;39.48;103601.31;7262245;19;154124;-76
2023/01/24 03:34:48;;;;;;;;;;;;;;;19.60;39.74;103586.22;7263594;19;153499;-74
2023/01/24 03:37:17;;;;;;;;;;;;;;;19.64;39.70;103589.38;7264643;19;153434;-74
2023/01/24 03:39:58;;;;;;;;;;;;;;;19.62;39.32;103591.59;7263427;19;155570;-75
2023/01/24 03:42:26;;;;;;;;;;;;;;;19.60;39.80;103591.81;7263461;19;153749;-75
2023/01/24 03:44:53;;;;;;;;;;;;;;;19.57;39.87;103594.25;7268493;19;153550;-74
2023/01/24 03:47:20;;;;;;;;;;;;;;;19.54;39.92;103590.81;7264677;19;153810;-74
2023/01/24 03:52:32;;;;;;;;;;;;;;;19.51;39.69;103593.25;7263467;19;154246;-74
2023/01/24 03:55:00;;;;;;;;;;;;;;;19.51;39.78;103596.03;7264538;19;152616;-74
2023/01/24 04:00:52;;;;;;;;;;;;;;;19.47;40.16;103603.22;7266377;19;153432;-74
2023/01/24 04:03:19;;;;;;;;;;;;;;;19.43;40.22;103601.97;7262106;19;153010;-74
2023/01/24 04:05:47;;;;;;;;;;;;;;;19.45;39.95;103594.19;7260372;19;154927;-74
2023/01/24 04:08:14;;;;;;;;;;;;;;;19.41;40.22;103593.75;7266217;19;155022;-75
2023/01/24 04:10:46;;;;;;;;;;;;;;;19.42;40.14;103594.63;7261088;19;153394;-75
2023/01/24 04:13:13;;;;;;;;;;;;;;;19.38;40.35;103597.06;7259472;19;153418;-74
2023/01/24 04:15:40;;;;;;;;;;;;;;;19.33;40.54;103591.28;7260767;19;153705;-74
2023/01/24 04:18:07;;;;;;;;;;;;;;;19.36;40.17;103606.78;7263938;19;155409;-74
2023/01/24 04:20:35;;;;;;;;;;;;;;;19.34;40.12;103595.81;7257646;19;154021;-75
2023/01/24 04:23:03;;;;;;;;;;;;;;;19.32;40.27;103592.38;7262052;19;153688;-75
2023/01/24 04:25:30;;;;;;;;;;;;;;;19.31;40.56;103595.41;7260305;19;153416;-74
2023/01/24 04:27:56;;;;;;;;;;;;;;;19.29;40.36;103592.88;7261277;19;154143;-75
2023/01/24 04:30:23;;;;;;;;;;;;;;;19.26;40.31;103592.47;7269601;19;154026;-74
2023/01/24 04:32:50;;;;;;;;;;;;;;;19.23;40.56;103587.31;7260805;19;155388;-75
2023/01/24 04:35:19;;;;;;;;;;;;;;;19.22;40.34;103585.63;7259494;19;153737;-75
2023/01/24 04:37:46;;;;;;;;;;;;;;;19.19;40.70;103589.75;7265097;19;154108;-74
2023/01/24 04:40:14;;;;;;;;;;;;;;;19.19;40.67;103588.91;7261676;19;155614;-75
2023/01/24 04:42:41;;;;;;;;;;;;;;;19.17;40.50;103593.91;7262813;19;153463;-75
2023/01/24 04:45:09;;;;;;;;;;;;;;;19.14;40.70;103585.94;7260497;19;153567;-74
2023/01/24 04:47:36;;;;;;;;;;;;;;;19.12;40.66;103583.38;7261115;19;155311;-75
2023/01/24 04:50:03;;;;;;;;;;;;;;;19.12;40.45;103585.34;7264153;19;152484;-74
2023/01/24 04:52:30;;;;;;;;;;;;;;;19.09;40.34;103584.69;7268017;19;154780;-74
2023/01/24 04:54:56;;;;;;;;;;;;;;;19.08;40.55;103587.72;7260540;19;153309;-74
2023/01/24 04:57:23;;;;;;;;;;;;;;;19.06;40.32;103584.31;7261569;19;153794;-75
2023/01/24 04:59:50;;;;;;;;;;;;;;;19.03;40.79;103587.59;7263134;19;155083;-75
2023/01/24 05:02:16;;;;;;;;;;;;;;;19.03;40.37;103579.19;7259552;19;153277;-75
2023/01/24 05:04:43;;;;;;;;;;;;;;;18.99;40.42;103581.59;7259172;19;154001;-74
2023/01/24 05:07:10;;;;;;;;;;;;;;;18.99;40.71;103586.31;7263448;19;154302;-74
2023/01/24 05:09:37;;;;;;;;;;;;;;;18.95;40.51;103574.75;7262542;19;153564;-75
2023/01/24 05:12:04;;;;;;;;;;;;;;;18.92;40.86;103586.41;7265641;19;153070;-75
2023/01/24 05:14:31;;;;;;;;;;;;;;;18.93;40.56;103570.47;7265243;19;156364;-75
2023/01/24 05:16:58;;;;;;;;;;;;;;;18.92;40.74;103577.16;7263821;19;153159;-75
2023/01/24 05:19:25;;;;;;;;;;;;;;;18.90;40.72;103582.97;7259243;19;157430;-74
2023/01/24 05:21:51;;;;;;;;;;;;;;;18.88;40.45;103587.97;7262463;19;151998;-74
2023/01/24 05:24:18;;;;;;;;;;;;;;;18.90;40.92;103582.13;7260145;19;155473;-74
2023/01/24 05:26:45;;;;;;;;;;;;;;;18.91;40.97;103586.66;7260395;19;154383;-74
2023/01/24 05:29:12;;;;;;;;;;;;;;;18.91;40.87;103587.50;7261003;19;152785;-75
2023/01/24 05:31:39;;;;;;;;;;;;;;;18.94;41.46;103597.41;7261743;19;153364;-75
2023/01/24 05:34:05;;;;;;;;;;;;;;;18.95;41.43;103593.50;7269003;19;153805;-75
2023/01/24 05:36:32;;;;;;;;;;;;;;;18.98;41.74;103593.91;7260368;19;153797;-75
2023/01/24 05:38:59;;;;;;;;;;;;;;;19.01;41.73;103585.03;7257563;19;156328;-75
2023/01/24 05:41:25;;;;;;;;;;;;;;;19.06;41.65;103595.53;7261991;19;153755;-76
2023/01/24 05:43:52;;;;;;;;;;;;;;;19.13;41.42;103593.47;7258239;19;156661;-75
2023/01/24 05:46:20;;;;;;;;;;;;;;;19.19;41.59;103595.34;7261364;19;153887;-75
2023/01/24 05:48:47;;;;;;;;;;;;;;;19.25;41.69;103599.19;7260405;19;155173;-75
2023/01/24 05:51:15;;;;;;;;;;;;;;;19.31;41.72;103601.00;7259823;19;155606;-75
2023/01/24 05:53:43;;;;;;;;;;;;;;;19.37;41.24;103602.88;7258616;19;153397;-75
2023/01/24 05:56:13;;;;;;;;;;;;;;;19.41;41.60;103602.19;7265664;19;153561;-75
2023/01/24 05:58:40;;;;;;;;;;;;;;;19.46;41.71;103607.13;7255525;19;155328;-75
2023/01/24 06:01:11;;;;;;;;;;;;;;;19.52;41.65;103606.19;7261116;19;153262;-75
2023/01/24 06:03:38;;;;;;;;;;;;;;;19.57;41.19;103605.47;7257620;19;154896;-74
2023/01/24 06:06:05;;;;;;;;;;;;;;;19.62;41.45;103600.88;7261177;19;154195;-75
2023/01/24 06:08:32;;;;;;;;;;;;;;;19.68;41.46;103604.63;7256093;19;153371;-75
2023/01/24 06:11:06;;;;;;;;;;;;;;;19.73;41.29;103601.97;7258814;19;153338;-74
2023/01/24 06:13:33;;;;;;;;;;;;;;;19.78;40.89;103604.94;7258555;19;153317;-75
2023/01/24 06:16:00;;;;;;;;;;;;;;;19.83;40.72;103607.88;7255348;19;152284;-74
2023/01/24 06:18:27;;;;;;;;;;;;;;;19.89;40.83;103601.31;7267186;19;154032;-74
2023/01/24 06:20:55;;;;;;;;;;;;;;;19.92;41.14;103598.88;7257176;19;153338;-74
2023/01/24 06:23:24;;;;;;;;;;;;;;;19.98;40.75;103600.75;7257761;19;153851;-75
2023/01/24 06:25:50;;;;;;;;;;;;;;;20.03;40.46;103599.16;7260518;19;154700;-75
2023/01/24 06:28:17;;;;;;;;;;;;;;;20.09;40.48;103603.78;7258732;19;152746;-74
2023/01/24 06:31:12;;;;;;;;;;;;;;;20.14;40.62;103601.13;7263243;19;154914;-74
2023/01/24 06:33:47;;;;;;;;;;;;;;;20.20;40.70;103600.16;7259844;19;154525;-74
2023/01/24 06:36:23;;;;;;;;;;;;;;;20.24;40.23;103595.78;7265432;19;153665;-75
2023/01/24 06:38:50;;;;;;;;;;;;;;;20.30;40.52;103595.72;7262761;19;154312;-74
2023/01/24 06:41:17;;;;;;;;;;;;;;;20.34;40.50;103599.72;7270099;19;156636;-75
2023/01/24 06:43:44;;;;;;;;;;;;;;;20.39;40.18;103597.06;7263593;19;153756;-75
2023/01/24 06:46:13;;;;;;;;;;;;;;;20.45;40.00;103602.78;7267780;19;154472;-74
2023/01/24 06:48:42;;;;;;;;;;;;;;;20.49;40.17;103604.84;7268782;19;153682;-75
2023/01/24 06:51:09;;;;;;;;;;;;;;;20.53;39.85;103603.28;7264867;19;155298;-75
2023/01/24 06:53:36;;;;;;;;;;;;;;;20.57;39.66;103604.50;7265556;19;153681;-75
2023/01/24 06:56:03;;;;;;;;;;;;;;;20.62;39.78;103607.44;7266832;19;153998;-75
2023/01/24 06:58:31;;;;;;;;;;;;;;;20.67;39.85;103606.72;7264897;19;153332;-75
2023/01/24 07:00:58;;;;;;;;;;;;;;;20.70;39.95;103607.06;7263556;19;153870;-75
2023/01/24 07:03:25;;;;;;;;;;;;;;;20.75;39.86;103609.16;7268907;19;154472;-76
2023/01/24 07:05:52;;;;;;;;;;;;;;;20.78;39.51;103606.69;7264006;19;153169;-75
2023/01/24 07:08:20;;;;;;;;;;;;;;;20.84;39.44;103607.66;7267723;19;154324;-76
2023/01/24 07:10:47;;;;;;;;;;;;;;;20.89;39.63;103612.56;7266107;19;153739;-75
2023/01/24 07:13:14;;;;;;;;;;;;;;;20.92;39.32;103612.06;7263593;19;154468;-76
2023/01/24 07:15:41;;;;;;;;;;;;;;;20.97;39.68;103615.84;7266804;19;153264;-76
2023/01/24 07:18:09;;;;;;;;;;;;;;;21.03;39.87;103614.84;7267391;19;155708;-75
2023/01/24 07:20:36;;;;;;;;;;;;;;;21.08;39.33;103622.53;7265339;19;154954;-75
2023/01/24 07:23:03;;;;;;;;;;;;;;;21.10;39.07;103623.16;7261841;19;155176;-75
2023/01/24 07:25:30;;;;;;;;;;;;;;;21.13;38.75;103629.16;7269361;19;154545;-75
2023/01/24 07:27:57;;;;;;;;;;;;;;;21.16;38.83;103628.69;7264415;19;153503;-75
2023/01/24 07:30:24;;;;;;;;;;;;;;;21.20;38.69;103623.41;7260107;19;153262;-75
2023/01/24 07:32:51;;;;;;;;;;;;;;;21.22;38.52;103636.09;7265800;19;154838;-75
2023/01/24 07:35:17;;;;;;;;;;;;;;;21.27;38.13;103643.78;7269564;19;154229;-75
2023/01/24 07:37:44;;;;;;;;;;;;;;;21.28;38.12;103639.88;7264039;19;153213;-73
2023/01/24 07:40:11;;;;;;;;;;;;;;;21.28;37.13;103642.69;7259878;19;153985;-72
2023/01/24 07:42:38;;;;;;;;;;;;;;;21.21;36.80;103648.44;7261286;19;152074;-73
2023/01/24 07:45:04;;;;;;;;;;;;;;;21.21;36.26;103658.88;7271110;19;156085;-75
2023/01/24 07:47:31;;;;;;;;;;;;;;;21.17;36.41;103650.03;7264119;19;153234;-75
2023/01/24 07:49:58;;;;;;;;;;;;;;;21.17;35.95;103654.81;7264961;19;155196;-75
2023/01/24 07:52:25;;;;;;;;;;;;;;;21.18;37.00;103663.00;7262805;19;154905;-75
2023/01/24 07:54:51;;;;;;;;;;;;;;;20.62;32.70;103663.63;7261503;19;153206;-75
2023/01/24 07:57:18;;;;;;;;;;;;;;;20.76;34.29;103659.47;7256155;19;158896;-75
2023/01/24 07:59:45;;;;;;;;;;;;;;;20.82;34.46;103661.28;7262078;19;153555;-75
2023/01/24 08:02:12;;;;;;;;;;;;;;;20.82;34.72;103669.72;7262438;19;153924;-74
2023/01/24 08:04:39;;;;;;;;;;;;;;;20.81;34.63;103676.44;7264588;19;153095;-74
2023/01/24 08:07:17;;;;;;;;;;;;;;;20.82;34.95;103675.34;7270307;19;153934;-76
2023/01/24 08:09:45;;;;;;;;;;;;;;;20.80;34.98;103679.50;7259591;19;153930;-76
2023/01/24 08:12:12;;;;;;;;;;;;;;;20.78;35.12;103688.19;7262068;19;153850;-75
2023/01/24 08:14:39;;;;;;;;;;;;;;;20.76;34.90;103687.56;7261785;19;152981;-75
2023/01/24 08:17:06;;;;;;;;;;;;;;;20.74;34.77;103698.19;7260565;19;155534;-75
2023/01/24 08:19:33;;;;;;;;;;;;;;;20.73;34.77;103687.19;7261158;19;154847;-76
2023/01/24 08:22:20;;;;;;;;;;;;;;;20.73;34.94;103696.47;7262652;19;153913;-75
2023/01/24 08:24:46;;;;;;;;;;;;;;;20.71;34.99;103704.31;7265313;19;154092;-76
2023/01/24 08:27:13;;;;;;;;;;;;;;;20.69;35.30;103700.88;7259182;19;154086;-75
2023/01/24 08:29:40;;;;;;;;;;;;;;;20.68;34.92;103695.50;7273053;19;153291;-75
2023/01/24 08:32:07;;;;;;;;;;;;;;;20.68;35.25;103699.16;7262206;19;154286;-76
2023/01/24 08:34:33;;;;;;;;;;;;;;;20.67;35.47;103705.03;7261754;19;153680;-76
2023/01/24 08:37:00;;;;;;;;;;;;;;;20.70;35.45;103701.75;7261739;19;155839;-75
2023/01/24 08:39:27;;;;;;;;;;;;;;;20.67;35.94;103708.69;7259319;19;155653;-75
2023/01/24 08:41:55;;;;;;;;;;;;;;;20.65;35.92;103713.69;7262709;19;153218;-74
2023/01/24 08:44:21;;;;;;;;;;;;;;;20.68;35.78;103710.41;7261961;19;154823;-74
2023/01/24 08:46:48;;;;;;;;;;;;;;;20.68;36.03;103713.22;7257906;19;154941;-74
2023/01/24 08:49:15;;;;;;;;;;;;;;;20.70;36.06;103725.06;7260379;19;155527;-75
2023/01/24 08:51:41;;;;;;;;;;;;;;;20.68;36.21;103721.63;7264993;19;155549;-74
2023/01/24 08:54:08;;;;;;;;;;;;;;;20.69;36.22;103722.50;7261081;19;153797;-74
2023/01/24 08:56:35;;;;;;;;;;;;;;;20.66;36.02;103725.78;7258838;19;154272;-74
2023/01/24 08:59:02;;;;;;;;;;;;;;;20.65;35.91;103724.06;7258015;19;154773;-74
2023/01/24 09:01:28;;;;;;;;;;;;;;;20.64;36.08;103731.66;7261417;19;154301;-75
2023/01/24 09:03:56;;;;;;;;;;;;;;;20.59;36.18;103731.50;7261694;19;154702;-74
2023/01/24 09:06:24;;;;;;;;;;;;;;;20.59;35.90;103725.03;7257279;19;154237;-74
2023/01/24 09:08:51;;;;;;;;;;;;;;;20.59;35.96;103719.41;7261135;19;152891;-74
2023/01/24 09:11:18;;;;;;;;;;;;;;;20.55;35.88;103726.63;7259291;19;154330;-75
2023/01/24 09:13:45;;;;;;;;;;;;;;;20.51;36.22;103736.63;7265788;19;154988;-74
2023/01/24 09:16:12;;;;;;;;;;;;;;;20.53;35.84;103740.06;7222798;19;154005;-74
2023/01/24 09:18:40;;;;;;;;;;;;;;;20.48;36.25;103735.16;7256367;19;154261;-73
2023/01/24 09:21:07;;;;;;;;;;;;;;;20.47;36.26;103729.78;7258157;19;153329;-74
2023/01/24 09:23:34;;;;;;;;;;;;;;;20.41;36.05;103735.25;7260004;19;154507;-73
2023/01/24 09:26:01;;;;;;;;;;;;;;;20.38;35.76;103730.13;7258038;19;154144;-74
2023/01/24 09:28:27;;;;;;;;;;;;;;;20.35;36.18;103727.78;7258630;19;153696;-74
2023/01/24 09:30:54;;;;;;;;;;;;;;;20.35;36.23;103724.97;7259178;19;153910;-74
2023/01/24 09:33:21;;;;;;;;;;;;;;;20.32;35.88;103730.22;7258388;19;153510;-75
2023/01/24 09:35:56;;;;;;;;;;;;;;;20.32;36.21;103724.59;7266090;19;153496;-75
2023/01/24 09:38:24;;;;;;;;;;;;;;;20.30;36.02;103729.63;7252297;19;153942;-75
2023/01/24 09:40:54;;;;;;;;;;;;;;;20.22;36.08;103722.34;7259346;19;153869;-75
2023/01/24 09:43:30;;;;;;;;;;;;;;;20.21;36.35;103722.59;7256750;19;153811;-74
2023/01/24 09:46:04;;;;;;;;;;;;;;;20.19;36.30;103720.00;7254907;19;154666;-75
2023/01/24 09:48:34;;;;;;;;;;;;;;;20.17;36.38;103726.97;7255356;19;153702;-75
2023/01/24 09:51:10;;;;;;;;;;;;;;;20.12;36.01;103718.41;7257121;19;153883;-75
2023/01/24 09:53:41;;;;;;;;;;;;;;;20.07;36.04;103712.66;7254486;19;154317;-74
2023/01/24 09:56:12;;;;;;;;;;;;;;;20.05;36.03;103715.69;7265355;19;154784;-76
2023/01/24 09:58:43;;;;;;;;;;;;;;;20.03;36.41;103708.63;7253468;19;153920;-75
2023/01/24 10:01:11;;;;;;;;;;;;;;;19.94;36.47;103708.91;7258272;19;153873;-75
2023/01/24 10:03:39;;;;;;;;;;;;;;;19.92;36.29;103716.75;7256779;19;154047;-74
2023/01/24 10:06:18;;;;;;;;;;;;;;;19.89;36.40;103714.41;7253542;19;155498;-76
2023/01/24 10:08:54;;;;;;;;;;;;;;;19.87;36.29;103713.78;7257685;19;152974;-74
2023/01/24 10:11:30;;;;;;;;;;;;;;;19.83;36.23;103718.16;7261577;19;154249;-75
2023/01/24 10:14:08;;;;;;;;;;;;;;;19.83;36.48;103717.28;7261555;19;157334;-75
2023/01/24 10:16:35;;;;;;;;;;;;;;;19.79;36.37;103719.72;7262669;19;153141;-74
2023/01/24 10:19:13;;;;;;;;;;;;;;;19.78;36.55;103729.22;7268770;19;154278;-75
2023/01/24 10:21:55;;;;;;;;;;;;;;;19.75;36.27;103728.84;7264417;19;154176;-73
2023/01/24 10:24:30;;;;;;;;;;;;;;;19.73;36.31;103731.88;7265527;19;154854;-77
2023/01/24 10:26:58;;;;;;;;;;;;;;;19.69;36.58;103730.63;7265502;19;154017;-73
2023/01/24 10:29:26;;;;;;;;;;;;;;;19.70;36.56;103732.34;7264436;19;153798;-74
2023/01/24 10:32:02;;;;;;;;;;;;;;;19.67;36.54;103731.97;7265254;19;155682;-74
2023/01/24 10:34:43;;;;;;;;;;;;;;;19.66;36.33;103735.88;7262328;19;155294;-73
2023/01/24 10:37:10;;;;;;;;;;;;;;;19.61;36.28;103738.50;7262976;19;153687;-73
2023/01/24 10:39:37;;;;;;;;;;;;;;;19.57;36.41;103731.66;7263504;19;153764;-74
2023/01/24 10:42:25;;;;;;;;;;;;;;;19.54;36.26;103731.03;7272947;19;153746;-74
2023/01/24 10:44:54;;;;;;;;;;;;;;;19.52;36.72;103733.22;7263550;19;154705;-73
2023/01/24 10:47:38;;;;;;;;;;;;;;;19.50;36.56;103732.59;7263591;19;155223;-74
2023/01/24 10:50:06;;;;;;;;;;;;;;;19.50;36.58;103720.50;7248534;19;153494;-73
2023/01/24 10:52:33;;;;;;;;;;;;;;;19.46;36.55;103731.34;7261661;19;153569;-74
2023/01/24 10:55:01;;;;;;;;;;;;;;;19.45;36.50;103717.53;7257015;19;154176;-73
2023/01/24 10:57:40;;;;;;;;;;;;;;;19.44;36.33;103724.28;7240346;19;154139;-74
2023/01/24 11:00:26;;;;;;;;;;;;;;;19.46;36.78;103720.13;7242577;19;155846;-74
2023/01/24 11:02:56;;;;;;;;;;;;;;;19.47;36.90;103719.03;7255262;19;153761;-73
2023/01/24 11:05:23;;;;;;;;;;;;;;;19.48;36.56;103712.34;7268279;19;153839;-74
2023/01/24 11:07:58;;;;;;;;;;;;;;;19.49;36.70;103711.25;7258956;19;154676;-73
2023/01/24 11:10:27;;;;;;;;;;;;;;;19.52;36.85;103705.19;7263168;19;152768;-74
2023/01/24 11:12:55;;;;;;;;;;;;;;;19.55;36.43;103701.03;7258767;19;153153;-74
2023/01/24 11:15:28;;;;;;;;;;;;;;;19.54;36.59;103700.19;7260694;19;156234;-74
2023/01/24 11:17:57;;;;;;;;;;;;;;;19.57;36.86;103698.00;7260145;19;153877;-74
2023/01/24 11:20:48;;;;;;;;;;;;;;;19.60;36.73;103704.00;7257603;19;154051;-74
2023/01/24 11:23:30;;;;;;;;;;;;;;;19.68;36.37;103700.00;7259413;19;154161;-74
2023/01/24 11:29:38;;;;;;;;;;;;;;;19.79;36.54;103697.28;7259809;19;153223;-74
2023/01/24 11:32:49;;;;;;;;;;;;;;;;;;;;;
2023/01/24 11:35:20;;;;;;;;;;;;;;;19.90;36.25;103702.06;7260314;19;155524;-74
2023/01/24 11:37:50;;;;;;;;;;;;;;;19.95;36.57;103702.22;7255487;19;153159;-74
2023/01/24 11:40:20;;;;;;;;;;;;;;;20.00;36.43;103698.69;7256983;19;154222;-74
2023/01/24 11:42:56;;;;;;;;;;;;;;;20.05;36.47;103689.56;7256604;19;154129;-74
2023/01/24 11:45:26;;;;;;;;;;;;;;;20.11;36.52;103692.28;7257567;19;156250;-73
2023/01/24 11:48:04;;;;;;;;;;;;;;;20.16;36.38;103689.63;7259181;19;153291;-74
2023/01/24 11:50:34;;;;;;;;;;;;;;;20.21;36.08;103688.91;7256946;19;153722;-74
2023/01/24 11:53:03;;;;;;;;;;;;;;;20.25;36.33;103682.56;7263123;19;154114;-73
2023/01/24 11:55:39;;;;;;;;;;;;;;;20.30;36.28;103681.88;7255784;19;154562;-74
2023/01/24 11:58:10;;;;;;;;;;;;;;;20.35;35.88;103684.84;7255807;19;153937;-74
2023/01/24 12:00:46;;;;;;;;;;;;;;;20.39;36.11;103684.13;7259897;19;153521;-74
2023/01/24 12:03:16;;;;;;;;;;;;;;;20.43;35.89;103673.25;7258194;19;153814;-74
2023/01/24 12:05:46;;;;;;;;;;;;;;;20.49;35.89;103679.84;7257408;19;154491;-74
2023/01/24 12:08:17;;;;;;;;;;;;;;;20.52;36.13;103670.94;7257123;19;153208;-74
2023/01/24 12:10:48;;;;;;;;;;;;;;;20.56;36.18;103669.34;7255720;19;154039;-74
2023/01/24 12:13:17;;;;;;;;;;;;;;;20.60;35.75;103664.94;7262818;19;154424;-73
2023/01/24 12:15:45;;;;;;;;;;;;;;;20.64;36.05;103664.22;7257403;19;156050;-74
2023/01/24 12:18:16;;;;;;;;;;;;;;;20.67;35.81;103649.69;7255080;19;153900;-74
2023/01/24 12:20:48;;;;;;;;;;;;;;;20.71;35.72;103658.50;7248767;19;154819;-73
2023/01/24 12:23:18;;;;;;;;;;;;;;;20.74;35.86;103656.06;7254435;19;154421;-74
2023/01/24 12:25:48;;;;;;;;;;;;;;;20.77;35.84;103654.69;7245793;19;155006;-74
2023/01/24 12:28:22;;;;;;;;;;;;;;;20.80;35.84;103648.59;7257107;19;154181;-74
2023/01/24 12:30:52;;;;;;;;;;;;;;;20.84;35.78;103642.25;7257985;19;154701;-74
2023/01/24 12:33:23;;;;;;;;;;;;;;;20.87;35.27;103643.69;7259544;19;153974;-74
2023/01/24 12:35:56;;;;;;;;;;;;;;;20.92;35.67;103637.34;7267221;19;154446;-74
2023/01/24 12:38:24;;;;;;;;;;;;;;;20.95;35.25;103634.88;7256045;19;153790;-75
2023/01/24 12:40:55;;;;;;;;;;;;;;;20.99;35.30;103630.47;7255461;19;153739;-74
2023/01/24 12:43:26;;;;;;;;;;;;;;;21.02;35.16;103629.16;7256281;19;155174;-76
2023/01/24 12:45:59;;;;;;;;;;;;;;;21.04;35.07;103633.41;7258387;19;154713;-74
2023/01/24 12:48:26;;;;;;;;;;;;;;;21.07;35.17;103627.31;7216789;19;155250;-74
2023/01/24 12:50:54;;;;;;;;;;;;;;;21.10;35.41;103628.78;7244049;19;154271;-74
2023/01/24 12:53:24;;;;;;;;;;;;;;;21.15;35.07;103621.34;7249874;19;153953;-74
2023/01/24 12:55:56;;;;;;;;;;;;;;;21.15;35.00;103621.34;7253821;19;154005;-74
2023/01/24 12:58:26;;;;;;;;;;;;;;;21.19;35.14;103616.06;7258644;19;153872;-74
2023/01/24 13:00:56;;;;;;;;;;;;;;;21.21;35.27;103602.63;7255981;19;153991;-74
2023/01/24 13:03:25;;;;;;;;;;;;;;;21.24;35.11;103604.94;7253393;19;154318;-75
2023/01/24 13:06:00;;;;;;;;;;;;;;;21.25;35.24;103592.59;7255909;19;155319;-76
2023/01/24 13:08:31;;;;;;;;;;;;;;;21.27;34.86;103590.38;7250821;19;154016;-73
2023/01/24 13:11:02;;;;;;;;;;;;;;;21.28;35.16;103589.28;7250901;19;154442;-75
2023/01/24 13:13:32;;;;;;;;;;;;;;;21.29;34.97;103590.97;7254634;19;153893;-75
2023/01/24 13:16:02;;;;;;;;;;;;;;;21.28;34.66;103586.47;7258620;19;153963;-76
2023/01/24 13:18:33;;;;;;;;;;;;;;;21.28;34.68;103592.94;7256252;19;154524;-76
2023/01/24 13:21:10;;;;;;;;;;;;;;;21.29;34.70;103594.66;7261770;19;155156;-74